createdAt,value
2018-11-26T00:01:14.367Z,4.50
2018-11-26T00:06:17.984Z,4.70
2018-11-26T00:11:36.590Z,4.70
2018-11-26T00:16:40.186Z,4.60
2018-11-26T00:21:43.762Z,4.70
2018-11-26T00:26:47.307Z,4.60
2018-11-26T00:31:50.842Z,4.60
2018-11-26T00:36:54.292Z,4.70
2018-11-26T00:41:57.815Z,4.60
2018-11-26T00:47:01.437Z,4.60
2018-11-26T00:52:05.407Z,4.40
2018-11-26T00:57:09.005Z,4.40
2018-11-26T01:02:12.584Z,4.30
2018-11-26T01:07:16.199Z,4.40
2018-11-26T01:12:19.779Z,4.40
2018-11-26T01:17:23.339Z,4.50
2018-11-26T01:22:27.038Z,4.50
2018-11-26T01:27:30.757Z,4.50
2018-11-26T01:32:34.349Z,4.30
2018-11-26T01:37:37.905Z,4.30
2018-11-26T01:42:42.057Z,4.30
2018-11-26T01:47:45.657Z,4.30
2018-11-26T01:52:49.278Z,4.20
2018-11-26T01:57:52.810Z,4.20
2018-11-26T02:02:56.501Z,4.10
2018-11-26T02:08:00.026Z,4.10
2018-11-26T02:13:03.563Z,4.00
2018-11-26T02:18:08.414Z,3.90
2018-11-26T02:23:12.941Z,4.00
2018-11-26T02:28:16.706Z,4.00
2018-11-26T02:33:20.312Z,3.90
2018-11-26T02:38:24.006Z,3.90
2018-11-26T02:43:27.573Z,3.90
2018-11-26T02:48:31.079Z,3.80
2018-11-26T02:53:34.649Z,3.80
2018-11-26T02:58:38.189Z,3.80
2018-11-26T03:03:41.694Z,3.70
2018-11-26T03:08:45.376Z,3.70
2018-11-26T03:13:49.026Z,3.70
2018-11-26T03:18:52.589Z,3.70
2018-11-26T03:23:56.205Z,3.60
2018-11-26T03:28:59.700Z,3.50
2018-11-26T03:34:03.205Z,3.50
2018-11-26T03:39:07.986Z,3.40
2018-11-26T03:44:11.476Z,3.40
2018-11-26T03:49:15.067Z,3.30
2018-11-26T03:54:18.770Z,3.30
2018-11-26T03:59:22.398Z,3.20
2018-11-26T04:04:26.010Z,3.20
2018-11-26T04:09:29.641Z,3.20
2018-11-26T04:14:33.151Z,3.20
2018-11-26T04:19:36.800Z,3.20
2018-11-26T04:24:40.344Z,3.20
2018-11-26T04:29:43.934Z,3.20
2018-11-26T04:34:47.459Z,3.40
2018-11-26T04:39:51.006Z,3.40
2018-11-26T04:44:54.537Z,3.50
2018-11-26T04:49:58.149Z,3.60
2018-11-26T04:55:01.678Z,3.60
2018-11-26T05:00:08.580Z,3.70
2018-11-26T05:05:13.198Z,3.70
2018-11-26T05:10:16.706Z,3.70
2018-11-26T05:15:20.274Z,3.70
2018-11-26T05:20:23.784Z,3.80
2018-11-26T05:25:27.437Z,3.90
2018-11-26T05:30:30.946Z,3.90
2018-11-26T05:35:34.476Z,4.00
2018-11-26T05:40:38.005Z,4.00
2018-11-26T05:45:41.519Z,3.90
2018-11-26T05:50:45.046Z,3.90
2018-11-26T05:55:48.558Z,3.80
2018-11-26T06:00:52.229Z,3.70
2018-11-26T06:05:55.932Z,3.70
2018-11-26T06:10:59.497Z,3.60
2018-11-26T06:16:03.259Z,3.60
2018-11-26T06:21:07.579Z,3.60
2018-11-26T06:26:11.104Z,3.60
2018-11-26T06:31:14.862Z,3.60
2018-11-26T06:36:18.476Z,3.60
2018-11-26T06:41:22.026Z,3.60
2018-11-26T06:46:25.778Z,3.50
2018-11-26T06:51:29.240Z,3.40
2018-11-26T06:56:32.958Z,3.30
2018-11-26T07:01:36.614Z,3.30
2018-11-26T07:06:40.289Z,3.40
2018-11-26T07:11:43.848Z,3.30
2018-11-26T07:16:47.354Z,3.20
2018-11-26T07:21:50.941Z,3.20
2018-11-26T07:26:54.437Z,3.20
2018-11-26T07:31:57.991Z,3.20
2018-11-26T07:37:01.528Z,3.20
2018-11-26T07:42:06.352Z,3.10
2018-11-26T07:47:09.930Z,3.00
2018-11-26T07:52:13.769Z,3.00
2018-11-26T07:57:17.241Z,2.90
2018-11-26T08:02:20.698Z,2.90
2018-11-26T08:07:24.180Z,2.90
2018-11-26T08:12:27.713Z,3.00
2018-11-26T08:17:31.275Z,3.20
2018-11-26T08:22:34.890Z,3.20
2018-11-26T08:27:39.201Z,3.20
2018-11-26T08:32:43.865Z,3.20
2018-11-26T08:37:53.251Z,3.20
2018-11-26T08:43:14.921Z,3.20
2018-11-26T08:48:25.658Z,3.30
2018-11-26T08:53:29.423Z,3.30
2018-11-26T08:58:33.033Z,3.50
2018-11-26T09:03:42.439Z,3.60
2018-11-26T09:08:46.233Z,3.70
2018-11-26T09:13:49.726Z,3.60
2018-11-26T09:18:53.738Z,3.60
2018-11-26T09:23:57.622Z,3.50
2018-11-26T09:29:01.132Z,3.50
2018-11-26T09:34:05.739Z,3.60
2018-11-26T09:39:11.831Z,3.60
2018-11-26T09:44:15.967Z,3.60
2018-11-26T09:49:20.420Z,3.50
2018-11-26T09:54:26.043Z,3.70
2018-11-26T09:59:28.870Z,3.70
2018-11-26T10:04:32.471Z,3.80
2018-11-26T10:09:35.929Z,4.00
2018-11-26T10:14:39.728Z,4.20
2018-11-26T10:19:43.648Z,4.30
2018-11-26T10:24:47.701Z,4.30
2018-11-26T10:29:51.306Z,4.40
2018-11-26T10:34:54.766Z,4.80
2018-11-26T10:39:58.333Z,5.20
2018-11-26T10:45:01.790Z,5.00
2018-11-26T10:50:08.473Z,4.90
2018-11-26T10:55:14.521Z,4.90
2018-11-26T11:00:24.001Z,5.00
2018-11-26T11:05:27.628Z,4.90
2018-11-26T11:10:33.150Z,5.00
2018-11-26T11:15:37.138Z,5.00
2018-11-26T11:20:40.872Z,5.10
2018-11-26T11:25:44.494Z,5.30
2018-11-26T11:30:48.110Z,5.40
2018-11-26T11:35:52.387Z,5.30
2018-11-26T11:40:55.935Z,5.40
2018-11-26T11:45:59.553Z,5.50
2018-11-26T11:51:03.262Z,5.60
2018-11-26T11:56:07.408Z,5.60
2018-11-26T12:01:11.130Z,5.80
2018-11-26T12:06:14.622Z,5.90
2018-11-26T12:11:18.112Z,6.00
2018-11-26T12:16:21.742Z,5.90
2018-11-26T12:21:25.437Z,6.00
2018-11-26T12:26:29.447Z,6.10
2018-11-26T12:31:32.973Z,6.20
2018-11-26T12:36:36.495Z,6.20
2018-11-26T12:41:40.079Z,6.10
2018-11-26T12:46:43.661Z,6.10
2018-11-26T12:51:47.173Z,6.20
2018-11-26T12:56:50.874Z,6.20
2018-11-26T13:01:54.419Z,6.10
2018-11-26T13:06:58.157Z,6.10
2018-11-26T13:12:02.186Z,6.10
2018-11-26T13:17:06.207Z,6.10
2018-11-26T13:22:09.686Z,6.10
2018-11-26T13:27:13.349Z,6.10
2018-11-26T13:32:17.084Z,6.00
2018-11-26T13:37:20.511Z,6.00
2018-11-26T13:42:24.081Z,6.00
2018-11-26T13:47:27.646Z,5.90
2018-11-26T13:52:31.784Z,5.90
2018-11-26T13:57:35.508Z,5.90
2018-11-26T14:02:39.167Z,5.80
2018-11-26T14:07:43.123Z,5.60
2018-11-26T14:12:55.662Z,5.70
2018-11-26T14:17:59.268Z,5.60
2018-11-26T14:23:02.826Z,5.60
2018-11-26T14:28:06.716Z,5.50
2018-11-26T14:33:10.652Z,5.50
2018-11-26T14:38:14.420Z,5.50
2018-11-26T14:43:17.924Z,5.40
2018-11-26T14:48:21.598Z,5.40
2018-11-26T14:53:25.156Z,5.20
2018-11-26T14:58:28.796Z,5.10
2018-11-26T15:03:32.415Z,5.10
2018-11-26T15:08:36.127Z,5.10
2018-11-26T15:13:39.860Z,5.10
2018-11-26T15:18:43.516Z,5.00
2018-11-26T15:23:47.033Z,4.90
2018-11-26T15:28:51.012Z,4.80
2018-11-26T15:33:54.658Z,4.80
2018-11-26T15:38:58.433Z,4.70
2018-11-26T15:44:02.322Z,4.70
2018-11-26T15:49:06.612Z,4.70
2018-11-26T15:54:10.148Z,4.70
2018-11-26T15:59:13.928Z,4.60
2018-11-26T16:04:17.667Z,4.60
2018-11-26T16:09:21.225Z,4.50
2018-11-26T16:14:24.777Z,4.60
2018-11-26T16:19:28.357Z,4.60
2018-11-26T16:24:32.040Z,4.60
2018-11-26T16:29:35.574Z,4.60
2018-11-26T16:34:39.119Z,4.60
2018-11-26T16:39:42.989Z,4.60
2018-11-26T16:44:46.518Z,4.70
2018-11-26T16:49:50.140Z,4.70
2018-11-26T16:54:53.705Z,4.80
2018-11-26T16:59:57.434Z,5.00
2018-11-26T17:05:01.263Z,5.00
2018-11-26T17:10:07.100Z,5.00
2018-11-26T17:15:15.676Z,5.10
2018-11-26T17:20:19.297Z,5.00
2018-11-26T17:25:22.857Z,4.90
2018-11-26T17:30:27.612Z,4.80
2018-11-26T17:35:32.065Z,4.70
2018-11-26T17:40:37.730Z,4.70
2018-11-26T17:45:41.386Z,4.70
2018-11-26T17:50:45.633Z,4.70
2018-11-26T17:55:54.844Z,4.60
2018-11-26T18:01:07.311Z,4.60
2018-11-26T18:06:11.035Z,4.60
2018-11-26T18:11:14.678Z,4.50
2018-11-26T18:16:18.249Z,4.40
2018-11-26T18:21:22.084Z,4.40
2018-11-26T18:26:26.289Z,4.50
2018-11-26T18:31:29.823Z,4.50
2018-11-26T18:36:33.415Z,4.50
2018-11-26T18:41:36.939Z,4.60
2018-11-26T18:46:40.525Z,5.20
2018-11-26T18:51:44.170Z,5.00
2018-11-26T18:56:47.728Z,4.90
2018-11-26T19:01:51.415Z,4.90
2018-11-26T19:06:56.006Z,4.80
2018-11-26T19:12:04.075Z,4.60
2018-11-26T19:17:03.749Z,4.50
2018-11-26T19:22:07.410Z,4.50
2018-11-26T19:27:11.832Z,4.50
2018-11-26T19:32:15.464Z,4.50
2018-11-26T19:37:19.110Z,4.50
2018-11-26T19:42:23.554Z,4.50
2018-11-26T19:47:26.319Z,4.60
2018-11-26T19:52:29.971Z,4.50
2018-11-26T19:57:33.527Z,4.50
2018-11-26T20:02:37.621Z,4.40
2018-11-26T20:07:41.418Z,4.40
2018-11-26T20:12:44.919Z,4.50
2018-11-26T20:17:48.479Z,4.50
2018-11-26T20:22:52.276Z,4.40
2018-11-26T20:27:56.091Z,4.50
2018-11-26T20:32:59.431Z,4.50
2018-11-26T20:38:03.067Z,4.20
2018-11-26T20:43:09.509Z,4.10
2018-11-26T20:48:13.409Z,4.10
2018-11-26T20:53:18.009Z,4.10
2018-11-26T20:58:21.704Z,4.20
2018-11-26T21:03:30.143Z,4.10
2018-11-26T21:08:35.616Z,4.00
2018-11-26T21:13:40.725Z,3.90
2018-11-26T21:18:46.284Z,3.90
2018-11-26T21:23:51.875Z,3.80
2018-11-26T21:28:57.728Z,3.80
2018-11-26T21:34:03.998Z,3.70
2018-11-26T21:39:10.548Z,3.70
2018-11-26T21:44:15.116Z,3.60
2018-11-26T21:49:20.206Z,3.60
2018-11-26T21:54:24.811Z,3.50
2018-11-26T21:59:29.299Z,3.50
2018-11-26T22:04:35.843Z,3.80
2018-11-26T22:09:41.059Z,4.40
2018-11-26T22:14:45.271Z,3.70
2018-11-26T22:19:49.833Z,3.50
2018-11-26T22:24:54.147Z,3.40
2018-11-26T22:29:58.746Z,3.60
2018-11-26T22:35:03.250Z,3.70
2018-11-26T22:40:13.881Z,3.70
2018-11-26T22:45:28.426Z,3.60
2018-11-26T22:50:32.334Z,3.60
2018-11-26T22:55:36.089Z,3.40
2018-11-26T23:00:59.768Z,3.30
2018-11-26T23:06:03.404Z,3.20
2018-11-26T23:11:07.584Z,3.10
2018-11-26T23:16:11.233Z,3.00
2018-11-26T23:21:14.737Z,2.90
2018-11-26T23:26:18.492Z,2.80
2018-11-26T23:31:22.193Z,2.80
2018-11-26T23:36:25.812Z,2.70
2018-11-26T23:41:29.469Z,2.60
2018-11-26T23:46:33.189Z,2.60
2018-11-26T23:51:36.645Z,2.50
2018-11-26T23:56:40.694Z,2.50
